sensor_id;sensor_type;location;lat;lon;timestamp;P1;durP1;ratioP1;P2;durP2;ratioP2
58669;SDS011;44439;47.924;10.198;2022-07-06T00:00:11;0.73;;;0.70;;
58669;SDS011;44439;47.924;10.198;2022-07-06T00:02:57;1.23;;;0.82;;
58669;SDS011;44439;47.924;10.198;2022-07-06T00:05:43;1.20;;;0.70;;
58669;SDS011;44439;47.924;10.198;2022-07-06T00:08:29;1.50;;;0.70;;
58669;SDS011;44439;47.924;10.198;2022-07-06T00:11:14;1.20;;;0.68;;
58669;SDS011;44439;47.924;10.198;2022-07-06T00:14:00;2.35;;;0.75;;
58669;SDS011;44439;47.924;10.198;2022-07-06T00:16:46;0.88;;;0.70;;
58669;SDS011;44439;47.924;10.198;2022-07-06T00:19:31;1.27;;;0.77;;
58669;SDS011;44439;47.924;10.198;2022-07-06T00:22:17;0.70;;;0.70;;
58669;SDS011;44439;47.924;10.198;2022-07-06T00:25:03;1.45;;;0.70;;
58669;SDS011;44439;47.924;10.198;2022-07-06T00:27:48;0.88;;;0.70;;
58669;SDS011;44439;47.924;10.198;2022-07-06T00:30:34;3.08;;;0.90;;
58669;SDS011;44439;47.924;10.198;2022-07-06T00:33:20;1.30;;;0.80;;
58669;SDS011;44439;47.924;10.198;2022-07-06T00:36:06;0.60;;;0.60;;
58669;SDS011;44439;47.924;10.198;2022-07-06T00:38:52;1.30;;;0.85;;
58669;SDS011;44439;47.924;10.198;2022-07-06T00:41:38;0.63;;;0.63;;
58669;SDS011;44439;47.924;10.198;2022-07-06T00:44:23;1.73;;;0.80;;
58669;SDS011;44439;47.924;10.198;2022-07-06T00:47:09;3.67;;;0.88;;
58669;SDS011;44439;47.924;10.198;2022-07-06T00:49:55;1.88;;;0.90;;
58669;SDS011;44439;47.924;10.198;2022-07-06T00:52:59;1.90;;;0.68;;
58669;SDS011;44439;47.924;10.198;2022-07-06T00:55:46;3.20;;;0.82;;
58669;SDS011;44439;47.924;10.198;2022-07-06T00:58:32;1.13;;;0.80;;
58669;SDS011;44439;47.924;10.198;2022-07-06T01:01:17;3.00;;;0.80;;
58669;SDS011;44439;47.924;10.198;2022-07-06T01:04:03;0.70;;;0.65;;
58669;SDS011;44439;47.924;10.198;2022-07-06T01:06:49;1.65;;;0.80;;
58669;SDS011;44439;47.924;10.198;2022-07-06T01:09:34;0.70;;;0.70;;
58669;SDS011;44439;47.924;10.198;2022-07-06T01:12:20;1.40;;;0.80;;
58669;SDS011;44439;47.924;10.198;2022-07-06T01:15:07;0.68;;;0.65;;
58669;SDS011;44439;47.924;10.198;2022-07-06T01:17:55;2.33;;;1.08;;
58669;SDS011;44439;47.924;10.198;2022-07-06T01:20:40;0.75;;;0.75;;
58669;SDS011;44439;47.924;10.198;2022-07-06T01:23:26;2.30;;;0.70;;
58669;SDS011;44439;47.924;10.198;2022-07-06T01:26:13;1.45;;;0.77;;
58669;SDS011;44439;47.924;10.198;2022-07-06T01:29:00;0.90;;;0.75;;
58669;SDS011;44439;47.924;10.198;2022-07-06T01:31:48;2.30;;;0.77;;
58669;SDS011;44439;47.924;10.198;2022-07-06T01:34:34;2.72;;;0.82;;
58669;SDS011;44439;47.924;10.198;2022-07-06T01:37:20;1.27;;;0.82;;
58669;SDS011;44439;47.924;10.198;2022-07-06T01:40:07;2.08;;;0.70;;
58669;SDS011;44439;47.924;10.198;2022-07-06T01:42:53;0.80;;;0.65;;
58669;SDS011;44439;47.924;10.198;2022-07-06T01:45:39;2.25;;;0.73;;
58669;SDS011;44439;47.924;10.198;2022-07-06T01:48:25;3.15;;;0.80;;
58669;SDS011;44439;47.924;10.198;2022-07-06T01:51:10;4.47;;;0.70;;
58669;SDS011;44439;47.924;10.198;2022-07-06T01:53:57;0.50;;;0.50;;
58669;SDS011;44439;47.924;10.198;2022-07-06T01:56:42;1.77;;;0.63;;
58669;SDS011;44439;47.924;10.198;2022-07-06T01:59:28;0.80;;;0.50;;
58669;SDS011;44439;47.924;10.198;2022-07-06T02:02:14;1.40;;;0.57;;
58669;SDS011;44439;47.924;10.198;2022-07-06T02:05:00;1.30;;;0.63;;
58669;SDS011;44439;47.924;10.198;2022-07-06T02:07:46;0.98;;;0.63;;
58669;SDS011;44439;47.924;10.198;2022-07-06T02:10:31;0.80;;;0.63;;
58669;SDS011;44439;47.924;10.198;2022-07-06T02:13:17;0.50;;;0.50;;
58669;SDS011;44439;47.924;10.198;2022-07-06T02:16:03;3.17;;;0.80;;
58669;SDS011;44439;47.924;10.198;2022-07-06T02:18:49;2.03;;;0.60;;
58669;SDS011;44439;47.924;10.198;2022-07-06T02:21:34;1.27;;;0.60;;
58669;SDS011;44439;47.924;10.198;2022-07-06T02:24:20;1.60;;;0.50;;
58669;SDS011;44439;47.924;10.198;2022-07-06T02:27:06;1.73;;;0.55;;
58669;SDS011;44439;47.924;10.198;2022-07-06T02:29:51;0.65;;;0.55;;
58669;SDS011;44439;47.924;10.198;2022-07-06T02:32:37;1.02;;;0.90;;
58669;SDS011;44439;47.924;10.198;2022-07-06T02:35:23;1.00;;;0.60;;
58669;SDS011;44439;47.924;10.198;2022-07-06T02:38:09;1.13;;;0.70;;
58669;SDS011;44439;47.924;10.198;2022-07-06T02:40:55;0.95;;;0.73;;
58669;SDS011;44439;47.924;10.198;2022-07-06T02:43:41;1.02;;;0.70;;
58669;SDS011;44439;47.924;10.198;2022-07-06T02:46:26;1.77;;;0.80;;
58669;SDS011;44439;47.924;10.198;2022-07-06T02:49:12;1.45;;;0.80;;
58669;SDS011;44439;47.924;10.198;2022-07-06T02:51:58;1.98;;;0.90;;
58669;SDS011;44439;47.924;10.198;2022-07-06T02:54:43;2.30;;;0.68;;
58669;SDS011;44439;47.924;10.198;2022-07-06T02:57:29;2.17;;;0.75;;
58669;SDS011;44439;47.924;10.198;2022-07-06T03:00:15;1.08;;;0.82;;
58669;SDS011;44439;47.924;10.198;2022-07-06T03:03:01;2.55;;;0.75;;
58669;SDS011;44439;47.924;10.198;2022-07-06T03:05:47;1.65;;;0.90;;
58669;SDS011;44439;47.924;10.198;2022-07-06T03:08:33;0.98;;;0.68;;
58669;SDS011;44439;47.924;10.198;2022-07-06T03:11:19;1.92;;;0.95;;
58669;SDS011;44439;47.924;10.198;2022-07-06T03:14:05;0.70;;;0.70;;
58669;SDS011;44439;47.924;10.198;2022-07-06T03:16:51;1.52;;;0.70;;
58669;SDS011;44439;47.924;10.198;2022-07-06T03:19:36;1.58;;;1.00;;
58669;SDS011;44439;47.924;10.198;2022-07-06T03:22:22;1.35;;;0.70;;
58669;SDS011;44439;47.924;10.198;2022-07-06T03:25:08;2.22;;;0.95;;
58669;SDS011;44439;47.924;10.198;2022-07-06T03:27:54;2.35;;;1.10;;
58669;SDS011;44439;47.924;10.198;2022-07-06T03:30:39;2.15;;;0.82;;
58669;SDS011;44439;47.924;10.198;2022-07-06T03:33:25;2.70;;;1.08;;
58669;SDS011;44439;47.924;10.198;2022-07-06T03:36:11;2.53;;;1.05;;
58669;SDS011;44439;47.924;10.198;2022-07-06T03:38:56;2.67;;;0.95;;
58669;SDS011;44439;47.924;10.198;2022-07-06T03:41:42;3.17;;;1.52;;
58669;SDS011;44439;47.924;10.198;2022-07-06T03:44:28;4.10;;;1.00;;
58669;SDS011;44439;47.924;10.198;2022-07-06T03:47:13;2.72;;;0.90;;
58669;SDS011;44439;47.924;10.198;2022-07-06T03:49:59;2.97;;;1.20;;
58669;SDS011;44439;47.924;10.198;2022-07-06T03:52:45;4.43;;;1.10;;
58669;SDS011;44439;47.924;10.198;2022-07-06T03:55:30;1.92;;;0.75;;
58669;SDS011;44439;47.924;10.198;2022-07-06T03:58:16;1.65;;;1.10;;
58669;SDS011;44439;47.924;10.198;2022-07-06T04:01:02;1.02;;;0.90;;
58669;SDS011;44439;47.924;10.198;2022-07-06T04:03:48;1.55;;;1.00;;
58669;SDS011;44439;47.924;10.198;2022-07-06T04:06:33;2.47;;;0.90;;
58669;SDS011;44439;47.924;10.198;2022-07-06T04:09:22;1.45;;;0.90;;
58669;SDS011;44439;47.924;10.198;2022-07-06T04:12:08;2.03;;;1.27;;
58669;SDS011;44439;47.924;10.198;2022-07-06T04:14:56;1.73;;;1.27;;
58669;SDS011;44439;47.924;10.198;2022-07-06T04:17:42;3.07;;;1.00;;
58669;SDS011;44439;47.924;10.198;2022-07-06T04:20:37;2.05;;;0.90;;
58669;SDS011;44439;47.924;10.198;2022-07-06T04:23:23;3.22;;;1.00;;
58669;SDS011;44439;47.924;10.198;2022-07-06T04:26:09;1.75;;;1.02;;
58669;SDS011;44439;47.924;10.198;2022-07-06T04:28:55;2.30;;;1.00;;
58669;SDS011;44439;47.924;10.198;2022-07-06T04:31:40;1.48;;;0.80;;
58669;SDS011;44439;47.924;10.198;2022-07-06T04:34:28;1.67;;;1.10;;
58669;SDS011;44439;47.924;10.198;2022-07-06T04:37:14;2.47;;;1.25;;
58669;SDS011;44439;47.924;10.198;2022-07-06T04:40:00;2.63;;;1.08;;
58669;SDS011;44439;47.924;10.198;2022-07-06T04:42:45;3.22;;;1.80;;
58669;SDS011;44439;47.924;10.198;2022-07-06T04:45:31;1.73;;;1.58;;
58669;SDS011;44439;47.924;10.198;2022-07-06T04:48:17;1.95;;;1.25;;
58669;SDS011;44439;47.924;10.198;2022-07-06T04:51:03;3.28;;;1.23;;
58669;SDS011;44439;47.924;10.198;2022-07-06T04:53:48;1.98;;;1.23;;
58669;SDS011;44439;47.924;10.198;2022-07-06T04:56:34;1.90;;;1.17;;
58669;SDS011;44439;47.924;10.198;2022-07-06T04:59:20;1.42;;;1.00;;
58669;SDS011;44439;47.924;10.198;2022-07-06T05:02:05;4.65;;;1.02;;
58669;SDS011;44439;47.924;10.198;2022-07-06T05:04:51;4.10;;;1.15;;
58669;SDS011;44439;47.924;10.198;2022-07-06T05:07:37;1.67;;;1.25;;
58669;SDS011;44439;47.924;10.198;2022-07-06T05:10:24;1.77;;;1.45;;
58669;SDS011;44439;47.924;10.198;2022-07-06T05:13:10;3.08;;;1.40;;
58669;SDS011;44439;47.924;10.198;2022-07-06T05:15:56;1.17;;;0.90;;
58669;SDS011;44439;47.924;10.198;2022-07-06T05:18:41;2.85;;;1.30;;
58669;SDS011;44439;47.924;10.198;2022-07-06T05:21:27;1.33;;;1.20;;
58669;SDS011;44439;47.924;10.198;2022-07-06T05:24:13;2.08;;;1.40;;
58669;SDS011;44439;47.924;10.198;2022-07-06T05:26:58;4.32;;;1.23;;
58669;SDS011;44439;47.924;10.198;2022-07-06T05:29:44;2.22;;;1.10;;
58669;SDS011;44439;47.924;10.198;2022-07-06T05:32:30;2.63;;;1.10;;
58669;SDS011;44439;47.924;10.198;2022-07-06T05:35:16;1.67;;;1.20;;
58669;SDS011;44439;47.924;10.198;2022-07-06T05:38:04;1.90;;;1.42;;
58669;SDS011;44439;47.924;10.198;2022-07-06T05:40:50;1.98;;;1.55;;
58669;SDS011;44439;47.924;10.198;2022-07-06T05:43:36;1.52;;;1.33;;
58669;SDS011;44439;47.924;10.198;2022-07-06T05:46:22;4.97;;;1.60;;
58669;SDS011;44439;47.924;10.198;2022-07-06T05:49:08;2.78;;;1.42;;
58669;SDS011;44439;47.924;10.198;2022-07-06T05:52:12;2.00;;;1.23;;
58669;SDS011;44439;47.924;10.198;2022-07-06T05:54:57;1.95;;;1.42;;
58669;SDS011;44439;47.924;10.198;2022-07-06T05:57:43;2.30;;;1.58;;
58669;SDS011;44439;47.924;10.198;2022-07-06T06:00:29;3.53;;;1.70;;
58669;SDS011;44439;47.924;10.198;2022-07-06T06:03:14;2.53;;;1.50;;
58669;SDS011;44439;47.924;10.198;2022-07-06T06:06:00;3.03;;;1.65;;
58669;SDS011;44439;47.924;10.198;2022-07-06T06:08:46;1.98;;;1.42;;
58669;SDS011;44439;47.924;10.198;2022-07-06T06:11:31;2.30;;;1.20;;
58669;SDS011;44439;47.924;10.198;2022-07-06T06:14:17;3.45;;;1.63;;
58669;SDS011;44439;47.924;10.198;2022-07-06T06:17:03;5.40;;;1.60;;
58669;SDS011;44439;47.924;10.198;2022-07-06T06:19:54;2.92;;;1.60;;
58669;SDS011;44439;47.924;10.198;2022-07-06T06:22:49;3.58;;;1.42;;
58669;SDS011;44439;47.924;10.198;2022-07-06T06:25:39;2.50;;;1.60;;
58669;SDS011;44439;47.924;10.198;2022-07-06T06:28:25;2.65;;;1.83;;
58669;SDS011;44439;47.924;10.198;2022-07-06T06:31:10;2.10;;;1.80;;
58669;SDS011;44439;47.924;10.198;2022-07-06T06:33:56;2.25;;;1.38;;
58669;SDS011;44439;47.924;10.198;2022-07-06T06:36:42;1.77;;;1.40;;
58669;SDS011;44439;47.924;10.198;2022-07-06T06:39:28;2.22;;;1.50;;
58669;SDS011;44439;47.924;10.198;2022-07-06T06:42:13;3.97;;;1.75;;
58669;SDS011;44439;47.924;10.198;2022-07-06T06:44:59;3.28;;;1.42;;
58669;SDS011;44439;47.924;10.198;2022-07-06T06:47:45;2.42;;;1.38;;
58669;SDS011;44439;47.924;10.198;2022-07-06T06:50:30;3.78;;;1.50;;
58669;SDS011;44439;47.924;10.198;2022-07-06T06:53:16;2.25;;;1.40;;
58669;SDS011;44439;47.924;10.198;2022-07-06T06:56:02;2.97;;;1.30;;
58669;SDS011;44439;47.924;10.198;2022-07-06T06:58:47;4.18;;;1.60;;
58669;SDS011;44439;47.924;10.198;2022-07-06T07:01:33;3.55;;;1.80;;
58669;SDS011;44439;47.924;10.198;2022-07-06T07:04:19;3.13;;;1.50;;
58669;SDS011;44439;47.924;10.198;2022-07-06T07:07:04;3.53;;;1.30;;
58669;SDS011;44439;47.924;10.198;2022-07-06T07:09:50;5.40;;;1.60;;
58669;SDS011;44439;47.924;10.198;2022-07-06T07:12:41;1.98;;;1.60;;
58669;SDS011;44439;47.924;10.198;2022-07-06T07:15:28;6.07;;;1.60;;
58669;SDS011;44439;47.924;10.198;2022-07-06T07:18:14;3.50;;;1.80;;
58669;SDS011;44439;47.924;10.198;2022-07-06T07:20:59;2.22;;;1.60;;
58669;SDS011;44439;47.924;10.198;2022-07-06T07:23:45;1.73;;;1.52;;
58669;SDS011;44439;47.924;10.198;2022-07-06T07:26:31;3.10;;;1.75;;
58669;SDS011;44439;47.924;10.198;2022-07-06T07:29:17;2.20;;;1.42;;
58669;SDS011;44439;47.924;10.198;2022-07-06T07:32:02;2.75;;;1.60;;
58669;SDS011;44439;47.924;10.198;2022-07-06T07:34:48;3.90;;;1.45;;
58669;SDS011;44439;47.924;10.198;2022-07-06T07:37:34;1.65;;;1.50;;
58669;SDS011;44439;47.924;10.198;2022-07-06T07:40:20;3.60;;;1.65;;
58669;SDS011;44439;47.924;10.198;2022-07-06T07:43:05;3.45;;;1.70;;
58669;SDS011;44439;47.924;10.198;2022-07-06T07:45:51;3.90;;;1.70;;
58669;SDS011;44439;47.924;10.198;2022-07-06T07:48:37;3.53;;;1.60;;
58669;SDS011;44439;47.924;10.198;2022-07-06T07:51:23;1.67;;;1.58;;
58669;SDS011;44439;47.924;10.198;2022-07-06T07:54:08;1.83;;;1.42;;
58669;SDS011;44439;47.924;10.198;2022-07-06T07:56:54;2.78;;;1.30;;
58669;SDS011;44439;47.924;10.198;2022-07-06T07:59:40;2.20;;;1.50;;
58669;SDS011;44439;47.924;10.198;2022-07-06T08:02:27;2.03;;;1.15;;
58669;SDS011;44439;47.924;10.198;2022-07-06T08:05:13;1.95;;;1.58;;
58669;SDS011;44439;47.924;10.198;2022-07-06T08:08:00;2.67;;;1.88;;
58669;SDS011;44439;47.924;10.198;2022-07-06T08:10:46;2.30;;;1.42;;
58669;SDS011;44439;47.924;10.198;2022-07-06T08:13:32;4.10;;;1.80;;
58669;SDS011;44439;47.924;10.198;2022-07-06T08:16:17;4.28;;;1.40;;
58669;SDS011;44439;47.924;10.198;2022-07-06T08:19:03;1.95;;;1.38;;
58669;SDS011;44439;47.924;10.198;2022-07-06T08:21:49;2.05;;;1.52;;
58669;SDS011;44439;47.924;10.198;2022-07-06T08:24:34;3.95;;;1.30;;
58669;SDS011;44439;47.924;10.198;2022-07-06T08:27:20;4.32;;;1.20;;
58669;SDS011;44439;47.924;10.198;2022-07-06T08:30:06;3.78;;;1.30;;
58669;SDS011;44439;47.924;10.198;2022-07-06T08:32:52;3.30;;;1.15;;
58669;SDS011;44439;47.924;10.198;2022-07-06T08:35:39;2.75;;;1.30;;
58669;SDS011;44439;47.924;10.198;2022-07-06T08:38:25;1.67;;;1.20;;
58669;SDS011;44439;47.924;10.198;2022-07-06T08:41:11;1.58;;;1.20;;
58669;SDS011;44439;47.924;10.198;2022-07-06T08:43:59;1.45;;;1.30;;
58669;SDS011;44439;47.924;10.198;2022-07-06T08:46:45;2.60;;;1.40;;
58669;SDS011;44439;47.924;10.198;2022-07-06T08:49:41;4.97;;;1.60;;
58669;SDS011;44439;47.924;10.198;2022-07-06T08:52:32;1.92;;;1.48;;
58669;SDS011;44439;47.924;10.198;2022-07-06T08:55:18;1.90;;;1.30;;
58669;SDS011;44439;47.924;10.198;2022-07-06T08:58:04;2.10;;;1.60;;
58669;SDS011;44439;47.924;10.198;2022-07-06T09:00:52;4.63;;;1.35;;
58669;SDS011;44439;47.924;10.198;2022-07-06T09:03:43;2.85;;;1.60;;
58669;SDS011;44439;47.924;10.198;2022-07-06T09:06:29;4.53;;;1.70;;
58669;SDS011;44439;47.924;10.198;2022-07-06T09:09:19;3.03;;;1.63;;
58669;SDS011;44439;47.924;10.198;2022-07-06T09:12:13;2.50;;;1.27;;
58669;SDS011;44439;47.924;10.198;2022-07-06T09:14:58;4.07;;;1.60;;
58669;SDS011;44439;47.924;10.198;2022-07-06T09:17:44;2.92;;;1.50;;
58669;SDS011;44439;47.924;10.198;2022-07-06T09:20:30;3.70;;;1.63;;
58669;SDS011;44439;47.924;10.198;2022-07-06T09:23:16;2.13;;;1.60;;
58669;SDS011;44439;47.924;10.198;2022-07-06T09:26:03;1.50;;;1.30;;
58669;SDS011;44439;47.924;10.198;2022-07-06T09:28:50;1.73;;;1.27;;
58669;SDS011;44439;47.924;10.198;2022-07-06T09:31:36;4.20;;;1.50;;
58669;SDS011;44439;47.924;10.198;2022-07-06T09:34:22;4.97;;;1.83;;
58669;SDS011;44439;47.924;10.198;2022-07-06T09:37:08;3.65;;;1.40;;
58669;SDS011;44439;47.924;10.198;2022-07-06T09:39:54;2.17;;;1.70;;
58669;SDS011;44439;47.924;10.198;2022-07-06T09:42:40;4.60;;;1.60;;
58669;SDS011;44439;47.924;10.198;2022-07-06T09:45:28;4.05;;;1.40;;
58669;SDS011;44439;47.924;10.198;2022-07-06T09:48:18;2.88;;;1.48;;
58669;SDS011;44439;47.924;10.198;2022-07-06T09:51:07;4.20;;;1.48;;
58669;SDS011;44439;47.924;10.198;2022-07-06T09:53:52;1.85;;;1.55;;
58669;SDS011;44439;47.924;10.198;2022-07-06T09:56:39;2.85;;;1.30;;
58669;SDS011;44439;47.924;10.198;2022-07-06T09:59:29;3.67;;;1.52;;
58669;SDS011;44439;47.924;10.198;2022-07-06T10:02:17;2.10;;;1.48;;
58669;SDS011;44439;47.924;10.198;2022-07-06T10:05:07;2.80;;;1.40;;
58669;SDS011;44439;47.924;10.198;2022-07-06T10:07:53;1.90;;;1.33;;
58669;SDS011;44439;47.924;10.198;2022-07-06T10:10:42;1.60;;;1.45;;
58669;SDS011;44439;47.924;10.198;2022-07-06T10:13:28;3.42;;;1.33;;
58669;SDS011;44439;47.924;10.198;2022-07-06T10:16:15;4.38;;;1.50;;
58669;SDS011;44439;47.924;10.198;2022-07-06T10:19:01;2.00;;;1.13;;
58669;SDS011;44439;47.924;10.198;2022-07-06T10:21:47;2.50;;;1.38;;
58669;SDS011;44439;47.924;10.198;2022-07-06T10:24:33;4.47;;;1.20;;
58669;SDS011;44439;47.924;10.198;2022-07-06T10:27:24;1.55;;;1.17;;
58669;SDS011;44439;47.924;10.198;2022-07-06T10:30:10;4.88;;;1.35;;
58669;SDS011;44439;47.924;10.198;2022-07-06T10:32:57;1.88;;;1.10;;
58669;SDS011;44439;47.924;10.198;2022-07-06T10:35:45;3.22;;;1.33;;
58669;SDS011;44439;47.924;10.198;2022-07-06T10:38:32;4.05;;;1.42;;
58669;SDS011;44439;47.924;10.198;2022-07-06T10:41:29;2.33;;;1.20;;
58669;SDS011;44439;47.924;10.198;2022-07-06T10:44:23;6.13;;;1.42;;
58669;SDS011;44439;47.924;10.198;2022-07-06T10:47:10;2.80;;;1.05;;
58669;SDS011;44439;47.924;10.198;2022-07-06T10:49:58;1.98;;;1.05;;
58669;SDS011;44439;47.924;10.198;2022-07-06T10:52:51;1.67;;;1.40;;
58669;SDS011;44439;47.924;10.198;2022-07-06T10:55:40;2.50;;;1.30;;
58669;SDS011;44439;47.924;10.198;2022-07-06T11:01:22;1.63;;;1.02;;
58669;SDS011;44439;47.924;10.198;2022-07-06T11:04:13;2.22;;;1.25;;
58669;SDS011;44439;47.924;10.198;2022-07-06T11:07:10;2.67;;;1.25;;
58669;SDS011;44439;47.924;10.198;2022-07-06T11:09:57;4.00;;;1.10;;
58669;SDS011;44439;47.924;10.198;2022-07-06T11:12:44;2.83;;;1.20;;
58669;SDS011;44439;47.924;10.198;2022-07-06T11:15:48;3.08;;;1.20;;
58669;SDS011;44439;47.924;10.198;2022-07-06T11:18:40;2.63;;;1.33;;
58669;SDS011;44439;47.924;10.198;2022-07-06T11:21:32;1.92;;;0.85;;
58669;SDS011;44439;47.924;10.198;2022-07-06T11:24:22;2.92;;;1.10;;
58669;SDS011;44439;47.924;10.198;2022-07-06T11:27:13;2.55;;;1.23;;
58669;SDS011;44439;47.924;10.198;2022-07-06T11:29:58;1.65;;;1.00;;
58669;SDS011;44439;47.924;10.198;2022-07-06T11:32:44;2.03;;;1.25;;
58669;SDS011;44439;47.924;10.198;2022-07-06T11:35:30;1.88;;;1.33;;
58669;SDS011;44439;47.924;10.198;2022-07-06T11:38:25;2.40;;;1.10;;
58669;SDS011;44439;47.924;10.198;2022-07-06T11:41:13;2.13;;;1.20;;
58669;SDS011;44439;47.924;10.198;2022-07-06T11:43:59;1.65;;;1.17;;
58669;SDS011;44439;47.924;10.198;2022-07-06T11:46:45;2.17;;;1.02;;
58669;SDS011;44439;47.924;10.198;2022-07-06T11:49:31;4.85;;;1.20;;
58669;SDS011;44439;47.924;10.198;2022-07-06T11:52:17;2.78;;;1.10;;
58669;SDS011;44439;47.924;10.198;2022-07-06T11:55:03;1.80;;;1.20;;
58669;SDS011;44439;47.924;10.198;2022-07-06T11:57:49;3.25;;;1.20;;
58669;SDS011;44439;47.924;10.198;2022-07-06T12:00:35;3.17;;;1.00;;
58669;SDS011;44439;47.924;10.198;2022-07-06T12:03:22;2.47;;;1.15;;
58669;SDS011;44439;47.924;10.198;2022-07-06T12:06:16;1.90;;;1.00;;
58669;SDS011;44439;47.924;10.198;2022-07-06T12:09:07;1.55;;;1.10;;
58669;SDS011;44439;47.924;10.198;2022-07-06T12:11:52;3.35;;;1.20;;
58669;SDS011;44439;47.924;10.198;2022-07-06T12:14:39;2.90;;;1.02;;
58669;SDS011;44439;47.924;10.198;2022-07-06T12:17:25;2.08;;;1.10;;
58669;SDS011;44439;47.924;10.198;2022-07-06T12:20:11;4.60;;;1.30;;
58669;SDS011;44439;47.924;10.198;2022-07-06T12:25:48;1.63;;;1.20;;
58669;SDS011;44439;47.924;10.198;2022-07-06T12:28:37;2.03;;;1.10;;
58669;SDS011;44439;47.924;10.198;2022-07-06T12:31:42;3.10;;;1.10;;
58669;SDS011;44439;47.924;10.198;2022-07-06T12:34:29;2.30;;;0.95;;
58669;SDS011;44439;47.924;10.198;2022-07-06T12:37:21;3.30;;;1.05;;
58669;SDS011;44439;47.924;10.198;2022-07-06T12:40:13;2.83;;;1.00;;
58669;SDS011;44439;47.924;10.198;2022-07-06T12:43:00;2.85;;;0.98;;
58669;SDS011;44439;47.924;10.198;2022-07-06T12:45:45;2.50;;;1.00;;
58669;SDS011;44439;47.924;10.198;2022-07-06T12:48:31;3.00;;;1.10;;
58669;SDS011;44439;47.924;10.198;2022-07-06T12:51:17;2.83;;;1.23;;
58669;SDS011;44439;47.924;10.198;2022-07-06T12:54:12;1.63;;;1.10;;
58669;SDS011;44439;47.924;10.198;2022-07-06T12:57:03;2.58;;;1.13;;
58669;SDS011;44439;47.924;10.198;2022-07-06T13:02:39;1.90;;;1.10;;
58669;SDS011;44439;47.924;10.198;2022-07-06T13:05:25;1.83;;;1.00;;
58669;SDS011;44439;47.924;10.198;2022-07-06T13:08:15;1.58;;;0.90;;
58669;SDS011;44439;47.924;10.198;2022-07-06T13:11:01;2.28;;;1.00;;
58669;SDS011;44439;47.924;10.198;2022-07-06T13:13:47;2.28;;;1.00;;
58669;SDS011;44439;47.924;10.198;2022-07-06T13:16:32;1.00;;;0.80;;
58669;SDS011;44439;47.924;10.198;2022-07-06T13:19:19;1.15;;;0.95;;
58669;SDS011;44439;47.924;10.198;2022-07-06T13:22:05;2.00;;;1.20;;
58669;SDS011;44439;47.924;10.198;2022-07-06T13:24:51;2.15;;;1.10;;
58669;SDS011;44439;47.924;10.198;2022-07-06T13:27:36;3.40;;;1.00;;
58669;SDS011;44439;47.924;10.198;2022-07-06T13:30:22;2.38;;;1.00;;
58669;SDS011;44439;47.924;10.198;2022-07-06T13:33:08;1.45;;;1.00;;
58669;SDS011;44439;47.924;10.198;2022-07-06T13:35:53;2.63;;;1.10;;
58669;SDS011;44439;47.924;10.198;2022-07-06T13:38:39;1.38;;;0.85;;
58669;SDS011;44439;47.924;10.198;2022-07-06T13:41:25;2.20;;;0.90;;
58669;SDS011;44439;47.924;10.198;2022-07-06T13:44:10;1.52;;;1.00;;
58669;SDS011;44439;47.924;10.198;2022-07-06T13:46:58;1.80;;;1.23;;
58669;SDS011;44439;47.924;10.198;2022-07-06T13:49:44;1.85;;;0.98;;
58669;SDS011;44439;47.924;10.198;2022-07-06T13:52:32;1.27;;;0.90;;
58669;SDS011;44439;47.924;10.198;2022-07-06T13:55:18;1.60;;;1.00;;
58669;SDS011;44439;47.924;10.198;2022-07-06T13:58:04;1.50;;;0.80;;
58669;SDS011;44439;47.924;10.198;2022-07-06T14:00:49;1.25;;;1.00;;
58669;SDS011;44439;47.924;10.198;2022-07-06T14:03:35;1.70;;;0.98;;
58669;SDS011;44439;47.924;10.198;2022-07-06T14:06:23;1.63;;;1.10;;
58669;SDS011;44439;47.924;10.198;2022-07-06T14:09:08;1.92;;;0.95;;
58669;SDS011;44439;47.924;10.198;2022-07-06T14:11:54;3.13;;;0.98;;
58669;SDS011;44439;47.924;10.198;2022-07-06T14:14:40;3.50;;;0.90;;
58669;SDS011;44439;47.924;10.198;2022-07-06T14:17:25;1.73;;;1.20;;
58669;SDS011;44439;47.924;10.198;2022-07-06T14:20:11;3.50;;;1.17;;
58669;SDS011;44439;47.924;10.198;2022-07-06T14:22:57;3.15;;;1.02;;
58669;SDS011;44439;47.924;10.198;2022-07-06T14:25:43;2.78;;;1.00;;
58669;SDS011;44439;47.924;10.198;2022-07-06T14:28:29;2.03;;;0.98;;
58669;SDS011;44439;47.924;10.198;2022-07-06T14:31:15;3.80;;;1.25;;
58669;SDS011;44439;47.924;10.198;2022-07-06T14:34:00;2.28;;;1.00;;
58669;SDS011;44439;47.924;10.198;2022-07-06T14:36:46;2.30;;;1.15;;
58669;SDS011;44439;47.924;10.198;2022-07-06T14:39:32;1.60;;;1.08;;
58669;SDS011;44439;47.924;10.198;2022-07-06T14:42:18;2.95;;;1.00;;
58669;SDS011;44439;47.924;10.198;2022-07-06T14:45:04;2.63;;;1.00;;
58669;SDS011;44439;47.924;10.198;2022-07-06T14:47:49;2.95;;;1.00;;
58669;SDS011;44439;47.924;10.198;2022-07-06T14:50:35;3.50;;;1.05;;
58669;SDS011;44439;47.924;10.198;2022-07-06T14:53:21;1.48;;;1.05;;
58669;SDS011;44439;47.924;10.198;2022-07-06T14:56:06;3.40;;;1.30;;
58669;SDS011;44439;47.924;10.198;2022-07-06T14:58:54;2.30;;;1.10;;
58669;SDS011;44439;47.924;10.198;2022-07-06T15:01:40;1.75;;;0.98;;
58669;SDS011;44439;47.924;10.198;2022-07-06T15:04:26;4.40;;;1.27;;
58669;SDS011;44439;47.924;10.198;2022-07-06T15:07:11;1.50;;;0.93;;
58669;SDS011;44439;47.924;10.198;2022-07-06T15:09:57;2.70;;;1.10;;
58669;SDS011;44439;47.924;10.198;2022-07-06T15:12:43;3.83;;;1.38;;
58669;SDS011;44439;47.924;10.198;2022-07-06T15:15:28;1.75;;;0.95;;
58669;SDS011;44439;47.924;10.198;2022-07-06T15:18:14;1.55;;;1.10;;
58669;SDS011;44439;47.924;10.198;2022-07-06T15:20:59;2.67;;;1.08;;
58669;SDS011;44439;47.924;10.198;2022-07-06T15:23:45;1.75;;;0.90;;
58669;SDS011;44439;47.924;10.198;2022-07-06T15:26:31;1.70;;;1.05;;
58669;SDS011;44439;47.924;10.198;2022-07-06T15:29:17;2.13;;;1.10;;
58669;SDS011;44439;47.924;10.198;2022-07-06T15:32:03;2.25;;;1.17;;
58669;SDS011;44439;47.924;10.198;2022-07-06T15:34:49;1.33;;;0.90;;
58669;SDS011;44439;47.924;10.198;2022-07-06T15:37:35;3.35;;;1.40;;
58669;SDS011;44439;47.924;10.198;2022-07-06T15:40:21;3.33;;;1.30;;
58669;SDS011;44439;47.924;10.198;2022-07-06T15:43:10;2.28;;;1.10;;
58669;SDS011;44439;47.924;10.198;2022-07-06T15:45:57;0.80;;;0.80;;
58669;SDS011;44439;47.924;10.198;2022-07-06T15:48:45;2.92;;;1.05;;
58669;SDS011;44439;47.924;10.198;2022-07-06T15:51:31;3.83;;;1.17;;
58669;SDS011;44439;47.924;10.198;2022-07-06T15:54:17;4.22;;;1.10;;
58669;SDS011;44439;47.924;10.198;2022-07-06T15:57:03;2.92;;;1.10;;
58669;SDS011;44439;47.924;10.198;2022-07-06T15:59:49;1.45;;;1.10;;
58669;SDS011;44439;47.924;10.198;2022-07-06T16:02:35;1.52;;;1.20;;
58669;SDS011;44439;47.924;10.198;2022-07-06T16:05:21;1.58;;;0.90;;
58669;SDS011;44439;47.924;10.198;2022-07-06T16:08:06;1.50;;;1.30;;
58669;SDS011;44439;47.924;10.198;2022-07-06T16:10:52;2.13;;;1.10;;
58669;SDS011;44439;47.924;10.198;2022-07-06T16:13:38;5.03;;;1.23;;
58669;SDS011;44439;47.924;10.198;2022-07-06T16:16:24;2.92;;;1.17;;
58669;SDS011;44439;47.924;10.198;2022-07-06T16:19:09;2.20;;;1.15;;
58669;SDS011;44439;47.924;10.198;2022-07-06T16:21:55;2.50;;;1.10;;
58669;SDS011;44439;47.924;10.198;2022-07-06T16:24:41;2.13;;;1.25;;
58669;SDS011;44439;47.924;10.198;2022-07-06T16:27:26;1.70;;;1.00;;
58669;SDS011;44439;47.924;10.198;2022-07-06T16:30:12;2.63;;;1.10;;
58669;SDS011;44439;47.924;10.198;2022-07-06T16:32:58;2.22;;;1.00;;
58669;SDS011;44439;47.924;10.198;2022-07-06T16:35:44;4.10;;;1.10;;